Time,TemperatureF,DewpointF,PressureIn,WindDirection,WindDirectionDegrees,WindSpeedMPH,WindSpeedGustMPH,Humidity,HourlyPrecipIn,Conditions,Clouds,dailyrainin,SoftwareType,DateUTC
2013-05-11 00:04:00,44.1,28.9,29.71,NE,45,0.0,0.0,55,0.00,CLR,,0.00,WeatherDisplay:10.37,2013-05-11 06:04:00,
2013-05-11 00:09:00,44.1,28.9,29.72,NE,45,0.0,0.0,55,0.00,CLR,,0.00,WeatherDisplay:10.37,2013-05-11 06:09:00,
2013-05-11 00:14:00,43.5,28.8,29.72,ENE,68,0.0,0.0,56,0.00,CLR,,0.00,WeatherDisplay:10.37,2013-05-11 06:14:00,
2013-05-11 00:19:00,43.3,28.7,29.72,North,0,0.0,0.0,56,0.00,CLR,,0.00,WeatherDisplay:10.37,2013-05-11 06:19:00,
2013-05-11 00:24:00,43.2,28.5,29.72,NNE,22,0.0,0.0,56,0.00,CLR,,0.00,WeatherDisplay:10.37,2013-05-11 06:24:00,
2013-05-11 00:29:00,43.0,28.3,29.72,East,90,2.3,2.3,56,0.00,CLR,,0.00,WeatherDisplay:10.37,2013-05-11 06:29:00,
2013-05-11 00:34:00,42.8,28.6,29.72,North,0,0.0,0.5,57,0.00,CLR,,0.00,WeatherDisplay:10.37,2013-05-11 06:34:00,
2013-05-11 00:39:00,42.8,28.6,29.72,ENE,68,0.0,0.1,57,0.00,CLR,,0.00,WeatherDisplay:10.37,2013-05-11 06:39:00,
2013-05-11 00:44:00,42.8,28.6,29.72,NE,45,0.0,0.0,57,0.00,CLR,,0.00,WeatherDisplay:10.37,2013-05-11 06:44:00,
2013-05-11 00:49:00,42.8,28.6,29.72,ENE,68,0.0,0.0,57,0.00,CLR,,0.00,WeatherDisplay:10.37,2013-05-11 06:49:00,
2013-05-11 00:54:00,42.8,28.6,29.72,SSW,202,0.0,0.0,57,0.00,CLR,,0.00,WeatherDisplay:10.37,2013-05-11 06:54:00,
2013-05-11 00:59:00,43.0,29.2,29.72,ENE,68,0.0,0.0,58,0.00,CLR,,0.00,WeatherDisplay:10.37,2013-05-11 06:59:00,
2013-05-11 01:04:00,43.0,29.2,29.72,ENE,68,0.0,0.0,58,0.00,CLR,,0.00,WeatherDisplay:10.37,2013-05-11 07:04:00,
2013-05-11 01:09:00,43.0,29.2,29.73,SE,135,0.0,0.0,58,0.00,CLR,,0.00,WeatherDisplay:10.37,2013-05-11 07:09:00,
2013-05-11 01:14:00,42.8,29.0,29.73,SSE,158,0.0,0.0,58,0.00,CLR,,0.00,WeatherDisplay:10.37,2013-05-11 07:14:00,
2013-05-11 01:19:00,42.8,29.5,29.73,NE,45,0.0,0.0,59,0.00,CLR,,0.00,WeatherDisplay:10.37,2013-05-11 07:19:00,
2013-05-11 01:24:00,42.8,29.5,29.73,NNE,22,0.0,0.0,59,0.00,CLR,,0.00,WeatherDisplay:10.37,2013-05-11 07:24:00,
2013-05-11 01:29:00,42.6,28.9,29.73,ENE,68,0.0,0.0,58,0.00,CLR,,0.00,WeatherDisplay:10.37,2013-05-11 07:29:00,
2013-05-11 01:34:00,42.3,28.5,29.73,NE,45,0.0,0.0,58,0.00,CLR,,0.00,WeatherDisplay:10.37,2013-05-11 07:34:00,
2013-05-11 01:39:00,42.1,28.8,29.73,NNE,22,0.0,0.0,59,0.00,CLR,,0.00,WeatherDisplay:10.37,2013-05-11 07:39:00,
2013-05-11 01:44:00,42.1,28.8,29.73,NE,45,0.0,0.0,59,0.00,CLR,,0.00,WeatherDisplay:10.37,2013-05-11 07:44:00,
2013-05-11 01:49:00,41.7,28.4,29.72,NNE,22,0.0,0.0,59,0.00,CLR,,0.00,WeatherDisplay:10.37,2013-05-11 07:49:00,
2013-05-11 01:54:00,41.9,28.6,29.72,NNE,22,0.0,0.0,59,0.00,CLR,,0.00,WeatherDisplay:10.37,2013-05-11 07:54:00,
2013-05-11 01:59:00,41.5,28.7,29.72,NNE,22,0.0,0.0,60,0.00,CLR,,0.00,WeatherDisplay:10.37,2013-05-11 07:59:00,
2013-05-11 02:04:00,41.5,28.7,29.72,NNE,22,0.0,0.0,60,0.00,CLR,,0.00,WeatherDisplay:10.37,2013-05-11 08:04:00,
2013-05-11 02:09:00,41.5,28.7,29.72,NNE,22,0.0,0.0,60,0.00,CLR,,0.00,WeatherDisplay:10.37,2013-05-11 08:09:00,
2013-05-11 02:14:00,41.2,28.3,29.72,NNE,22,0.0,0.0,60,0.00,CLR,,0.00,WeatherDisplay:10.37,2013-05-11 08:14:00,
2013-05-11 02:19:00,41.2,28.3,29.72,NNE,22,0.0,0.0,60,0.00,CLR,,0.00,WeatherDisplay:10.37,2013-05-11 08:19:00,
2013-05-11 02:24:00,40.8,28.4,29.72,NE,45,0.0,0.0,61,0.00,CLR,,0.00,WeatherDisplay:10.37,2013-05-11 08:24:00,
2013-05-11 02:29:00,40.8,28.4,29.72,ESE,112,0.0,0.0,61,0.00,CLR,,0.00,WeatherDisplay:10.37,2013-05-11 08:29:00,
2013-05-11 02:34:00,40.6,28.2,29.72,ENE,68,0.0,0.0,61,0.00,CLR,,0.00,WeatherDisplay:10.37,2013-05-11 08:34:00,
2013-05-11 02:39:00,40.5,28.1,29.72,North,0,0.0,0.0,61,0.00,CLR,,0.00,WeatherDisplay:10.37,2013-05-11 08:39:00,
2013-05-11 02:44:00,40.3,27.9,29.72,ENE,68,0.0,0.0,61,0.00,CLR,,0.00,WeatherDisplay:10.37,2013-05-11 08:44:00,
2013-05-11 02:49:00,39.9,27.5,29.72,ENE,68,0.0,0.0,61,0.00,CLR,,0.00,WeatherDisplay:10.37,2013-05-11 08:49:00,
2013-05-11 02:54:00,40.1,27.7,29.72,North,0,0.0,0.0,61,0.00,CLR,,0.00,WeatherDisplay:10.37,2013-05-11 08:54:00,
2013-05-11 02:59:00,39.9,27.5,29.72,North,0,0.0,0.0,61,0.00,CLR,,0.00,WeatherDisplay:10.37,2013-05-11 08:59:00,
2013-05-11 03:04:00,39.9,27.5,29.72,North,0,0.0,0.0,61,0.00,CLR,,0.00,WeatherDisplay:10.37,2013-05-11 09:04:00,
2013-05-11 03:09:00,39.9,27.5,29.71,North,0,0.0,0.0,61,0.00,CLR,,0.00,WeatherDisplay:10.37,2013-05-11 09:09:00,
2013-05-11 03:14:00,39.7,27.8,29.71,SE,135,0.0,0.0,62,0.00,CLR,,0.00,WeatherDisplay:10.37,2013-05-11 09:14:00,
2013-05-11 03:19:00,39.4,27.4,29.71,North,0,0.0,0.0,62,0.00,CLR,,0.00,WeatherDisplay:10.37,2013-05-11 09:19:00,
2013-05-11 03:24:00,39.4,27.4,29.71,North,0,0.0,0.0,62,0.00,CLR,,0.00,WeatherDisplay:10.37,2013-05-11 09:24:00,
2013-05-11 03:29:00,39.0,27.1,29.72,East,90,0.0,0.0,62,0.00,CLR,,0.00,WeatherDisplay:10.37,2013-05-11 09:29:00,
2013-05-11 03:34:00,39.0,27.5,29.72,ENE,68,0.0,0.0,63,0.00,CLR,,0.00,WeatherDisplay:10.37,2013-05-11 09:34:00,
2013-05-11 03:39:00,39.0,27.5,29.72,North,0,0.0,0.0,63,0.00,CLR,,0.00,WeatherDisplay:10.37,2013-05-11 09:39:00,
2013-05-11 03:44:00,38.7,27.1,29.72,NE,45,0.0,0.0,63,0.00,CLR,,0.00,WeatherDisplay:10.37,2013-05-11 09:44:00,
2013-05-11 03:49:00,38.5,27.0,29.72,NNE,22,0.0,0.0,63,0.00,CLR,,0.00,WeatherDisplay:10.37,2013-05-11 09:49:00,
2013-05-11 03:54:00,38.7,27.1,29.72,North,0,0.0,0.0,63,0.00,CLR,,0.00,WeatherDisplay:10.37,2013-05-11 09:54:00,
2013-05-11 03:59:00,38.5,27.0,29.72,NNE,22,0.0,0.0,63,0.00,CLR,,0.00,WeatherDisplay:10.37,2013-05-11 09:59:00,
2013-05-11 04:04:00,38.3,26.8,29.72,North,0,0.0,0.0,63,0.00,CLR,,0.00,WeatherDisplay:10.37,2013-05-11 10:04:00,
2013-05-11 04:09:00,38.3,26.8,29.70,ENE,68,0.0,0.0,63,0.00,CLR,,0.00,WeatherDisplay:10.37,2013-05-11 10:09:00,
2013-05-11 04:14:00,38.3,26.8,29.70,ENE,68,0.0,0.0,63,0.00,CLR,,0.00,WeatherDisplay:10.37,2013-05-11 10:14:00,
2013-05-11 04:19:00,38.1,26.6,29.70,ENE,68,0.0,0.0,63,0.00,CLR,,0.00,WeatherDisplay:10.37,2013-05-11 10:19:00,
2013-05-11 04:24:00,37.9,26.5,29.70,ESE,112,0.0,0.0,63,0.00,CLR,,0.00,WeatherDisplay:10.37,2013-05-11 10:24:00,
2013-05-11 04:29:00,37.8,26.7,29.70,NE,45,0.0,0.0,64,0.00,CLR,,0.00,WeatherDisplay:10.37,2013-05-11 10:29:00,
2013-05-11 04:34:00,37.8,26.7,29.70,SE,135,0.0,0.0,64,0.00,CLR,,0.00,WeatherDisplay:10.37,2013-05-11 10:34:00,
2013-05-11 04:39:00,37.6,26.5,29.70,SE,135,0.0,0.0,64,0.00,CLR,,0.00,WeatherDisplay:10.37,2013-05-11 10:39:00,
2013-05-11 04:44:00,37.4,26.3,29.70,SE,135,0.0,0.0,64,0.00,CLR,,0.00,WeatherDisplay:10.37,2013-05-11 10:44:00,
2013-05-11 04:49:00,37.2,26.2,29.70,ESE,112,0.0,0.0,64,0.00,CLR,,0.00,WeatherDisplay:10.37,2013-05-11 10:49:00,
2013-05-11 04:54:00,37.0,26.0,29.70,NE,45,0.0,0.0,64,0.00,CLR,,0.00,WeatherDisplay:10.37,2013-05-11 10:54:00,
2013-05-11 04:59:00,37.0,26.4,29.70,NNE,22,0.0,0.0,65,0.00,CLR,,0.00,WeatherDisplay:10.37,2013-05-11 10:59:00,
2013-05-11 05:04:00,36.9,26.2,29.70,NE,45,0.0,0.0,65,0.00,CLR,,0.00,WeatherDisplay:10.37,2013-05-11 11:04:00,
2013-05-11 05:09:00,36.7,26.0,29.70,NE,45,0.0,0.0,65,0.00,CLR,,0.00,WeatherDisplay:10.37,2013-05-11 11:09:00,
2013-05-11 05:14:00,36.9,26.2,29.70,NE,45,0.0,0.0,65,0.00,CLR,,0.00,WeatherDisplay:10.37,2013-05-11 11:14:00,
2013-05-11 05:19:00,36.9,26.2,29.70,NE,45,0.0,0.0,65,0.00,CLR,,0.00,WeatherDisplay:10.37,2013-05-11 11:19:00,
2013-05-11 05:24:00,36.5,25.8,29.70,East,90,0.0,0.0,65,0.00,CLR,,0.00,WeatherDisplay:10.37,2013-05-11 11:24:00,
2013-05-11 05:29:00,36.3,25.7,29.69,NE,45,0.0,0.0,65,0.00,CLR,,0.00,WeatherDisplay:10.37,2013-05-11 11:29:00,
2013-05-11 05:34:00,36.3,25.7,29.69,SE,135,0.0,0.0,65,0.00,CLR,,0.00,WeatherDisplay:10.37,2013-05-11 11:34:00,
2013-05-11 05:39:00,36.1,25.5,29.69,SSW,202,0.0,0.0,65,0.00,CLR,,0.00,WeatherDisplay:10.37,2013-05-11 11:39:00,
2013-05-11 05:44:00,36.1,25.9,29.69,SSW,202,0.0,0.0,66,0.00,CLR,,0.00,WeatherDisplay:10.37,2013-05-11 11:44:00,
2013-05-11 05:49:00,36.0,25.7,29.69,NE,45,0.0,0.0,66,0.00,CLR,,0.00,WeatherDisplay:10.37,2013-05-11 11:49:00,
2013-05-11 05:54:00,35.8,25.5,29.69,North,0,0.0,0.0,66,0.00,CLR,,0.00,WeatherDisplay:10.37,2013-05-11 11:54:00,
2013-05-11 05:59:00,36.1,25.9,29.69,NE,45,0.0,0.0,66,0.00,CLR,,0.00,WeatherDisplay:10.37,2013-05-11 11:59:00,
2013-05-11 06:04:00,36.0,25.7,29.69,North,0,0.0,0.0,66,0.00,CLR,,0.00,WeatherDisplay:10.37,2013-05-11 12:04:00,
2013-05-11 06:09:00,36.0,25.7,29.69,North,0,0.0,0.0,66,0.00,CLR,,0.00,WeatherDisplay:10.37,2013-05-11 12:09:00,
2013-05-11 06:14:00,35.6,25.4,29.69,West,270,0.0,0.0,66,0.00,CLR,,0.00,WeatherDisplay:10.37,2013-05-11 12:14:00,
2013-05-11 06:19:00,35.6,25.7,29.69,NE,45,0.0,0.0,67,0.00,CLR,,0.00,WeatherDisplay:10.37,2013-05-11 12:19:00,
2013-05-11 06:24:00,35.6,25.7,29.69,East,90,0.0,0.0,67,0.00,CLR,,0.00,WeatherDisplay:10.37,2013-05-11 12:24:00,
2013-05-11 06:29:00,35.6,25.7,29.70,NE,45,0.0,0.0,67,0.00,CLR,,0.00,WeatherDisplay:10.37,2013-05-11 12:29:00,
2013-05-11 06:34:00,35.6,25.7,29.70,ENE,68,0.0,0.0,67,0.00,CLR,,0.00,WeatherDisplay:10.37,2013-05-11 12:34:00,
2013-05-11 06:39:00,35.8,25.9,29.70,ENE,68,0.0,0.0,67,0.00,CLR,,0.00,WeatherDisplay:10.37,2013-05-11 12:39:00,
2013-05-11 06:44:00,35.6,25.7,29.70,NE,45,0.0,0.0,67,0.00,CLR,,0.00,WeatherDisplay:10.37,2013-05-11 12:44:00,
2013-05-11 06:49:00,35.8,25.9,29.70,North,0,0.0,0.0,67,0.00,CLR,,0.00,WeatherDisplay:10.37,2013-05-11 12:49:00,
2013-05-11 06:54:00,36.1,26.2,29.70,NE,45,0.0,0.0,67,0.00,CLR,,0.00,WeatherDisplay:10.37,2013-05-11 12:54:00,
2013-05-11 06:59:00,36.1,26.2,29.70,NNE,22,0.0,0.0,67,0.00,CLR,,0.00,WeatherDisplay:10.37,2013-05-11 12:59:00,
2013-05-11 07:04:00,36.3,26.8,29.70,North,0,0.0,0.0,68,0.00,CLR,,0.00,WeatherDisplay:10.37,2013-05-11 13:04:00,
2013-05-11 07:09:00,36.7,27.1,29.69,North,0,0.0,0.0,68,0.00,CLR,,0.00,WeatherDisplay:10.37,2013-05-11 13:09:00,
2013-05-11 07:14:00,37.2,27.6,29.69,NE,45,0.0,0.0,68,0.00,CLR,,0.00,WeatherDisplay:10.37,2013-05-11 13:14:00,
2013-05-11 07:19:00,37.8,28.1,29.69,South,180,0.0,0.0,68,0.00,CLR,,0.00,WeatherDisplay:10.37,2013-05-11 13:19:00,
2013-05-11 07:24:00,38.3,28.7,29.69,West,270,0.0,0.0,68,0.00,CLR,,0.00,WeatherDisplay:10.37,2013-05-11 13:24:00,
2013-05-11 07:29:00,39.0,29.3,29.72,NNW,338,0.0,0.0,68,0.00,CLR,,0.00,WeatherDisplay:10.37,2013-05-11 13:29:00,
2013-05-11 07:34:00,39.6,29.9,29.72,SSW,202,0.0,0.0,68,0.00,CLR,,0.00,WeatherDisplay:10.37,2013-05-11 13:34:00,
2013-05-11 07:39:00,39.9,30.2,29.72,WSW,248,0.0,0.0,68,0.00,CLR,,0.00,WeatherDisplay:10.37,2013-05-11 13:39:00,
2013-05-11 07:44:00,40.8,31.4,29.72,WSW,248,0.0,0.0,69,0.00,CLR,,0.00,WeatherDisplay:10.37,2013-05-11 13:44:00,
2013-05-11 07:49:00,41.2,31.4,29.75,WSW,248,0.0,0.0,68,0.00,CLR,,0.00,WeatherDisplay:10.37,2013-05-11 13:49:00,
2013-05-11 07:54:00,41.9,32.1,29.75,WSW,248,0.0,0.0,68,0.00,CLR,,0.00,WeatherDisplay:10.37,2013-05-11 13:54:00,
2013-05-11 07:59:00,42.1,32.3,29.75,SW,225,0.0,0.0,68,0.00,CLR,,0.00,WeatherDisplay:10.37,2013-05-11 13:59:00,
2013-05-11 08:04:00,42.6,32.4,29.75,NW,315,0.0,0.0,67,0.00,CLR,,0.00,WeatherDisplay:10.37,2013-05-11 14:04:00,
2013-05-11 08:09:00,42.8,32.6,29.70,North,0,0.0,0.0,67,0.00,CLR,,0.00,WeatherDisplay:10.37,2013-05-11 14:09:00,
2013-05-11 08:14:00,43.2,32.9,29.70,WNW,292,0.0,0.0,67,0.00,CLR,,0.00,WeatherDisplay:10.37,2013-05-11 14:14:00,
2013-05-11 08:19:00,43.5,33.3,29.70,NW,315,0.0,0.0,67,0.00,CLR,,0.00,WeatherDisplay:10.37,2013-05-11 14:19:00,
2013-05-11 08:24:00,44.4,34.1,29.70,SW,225,0.0,0.0,67,0.00,CLR,,0.00,WeatherDisplay:10.37,2013-05-11 14:24:00,
2013-05-11 08:29:00,44.8,34.5,29.73,WSW,248,0.0,0.0,67,0.00,CLR,,0.00,WeatherDisplay:10.37,2013-05-11 14:29:00,
2013-05-11 08:34:00,45.7,35.0,29.73,SW,225,0.0,0.0,66,0.00,CLR,,0.00,WeatherDisplay:10.37,2013-05-11 14:34:00,
2013-05-11 08:39:00,46.2,35.5,29.73,SW,225,0.0,0.0,66,0.00,CLR,,0.00,WeatherDisplay:10.37,2013-05-11 14:39:00,
2013-05-11 08:44:00,46.9,36.2,29.73,WSW,248,0.0,0.0,66,0.00,CLR,,0.00,WeatherDisplay:10.37,2013-05-11 14:44:00,
2013-05-11 08:49:00,47.3,36.1,29.75,SW,225,0.0,0.0,65,0.00,CLR,,0.00,WeatherDisplay:10.37,2013-05-11 14:49:00,
2013-05-11 08:54:00,48.0,36.4,29.75,WSW,248,0.0,0.0,64,0.00,CLR,,0.00,WeatherDisplay:10.37,2013-05-11 14:54:00,
2013-05-11 08:59:00,48.2,36.6,29.75,SW,225,0.0,0.0,64,0.00,CLR,,0.00,WeatherDisplay:10.37,2013-05-11 14:59:00,
2013-05-11 09:04:00,48.9,36.9,29.75,WSW,248,0.0,0.0,63,0.00,CLR,,0.00,WeatherDisplay:10.37,2013-05-11 15:04:00,
2013-05-11 09:09:00,49.3,36.8,29.75,WSW,248,0.0,0.0,62,0.00,CLR,,0.00,WeatherDisplay:10.37,2013-05-11 15:09:00,
2013-05-11 09:14:00,49.8,36.9,29.75,WSW,248,0.0,0.0,61,0.00,CLR,,0.00,WeatherDisplay:10.37,2013-05-11 15:14:00,
2013-05-11 09:19:00,50.5,37.6,29.75,West,270,0.0,0.0,61,0.00,CLR,,0.00,WeatherDisplay:10.37,2013-05-11 15:19:00,
2013-05-11 09:24:00,51.1,37.7,29.75,WSW,248,0.0,0.0,60,0.00,CLR,,0.00,WeatherDisplay:10.37,2013-05-11 15:24:00,
2013-05-11 09:29:00,51.6,37.7,29.74,West,270,0.0,0.0,59,0.00,CLR,,0.00,WeatherDisplay:10.37,2013-05-11 15:29:00,
2013-05-11 09:34:00,52.3,38.0,29.74,WSW,248,0.0,0.0,58,0.00,CLR,,0.00,WeatherDisplay:10.37,2013-05-11 15:34:00,
2013-05-11 09:39:00,52.7,38.3,29.74,WSW,248,0.0,0.0,58,0.00,CLR,,0.00,WeatherDisplay:10.37,2013-05-11 15:39:00,
2013-05-11 09:44:00,53.1,38.7,29.74,SW,225,0.0,0.0,58,0.00,CLR,,0.00,WeatherDisplay:10.37,2013-05-11 15:44:00,
2013-05-11 09:49:00,53.1,38.7,29.73,WSW,248,0.0,0.0,58,0.00,CLR,,0.00,WeatherDisplay:10.37,2013-05-11 15:49:00,
2013-05-11 09:54:00,53.6,38.7,29.73,SW,225,0.0,0.0,57,0.00,CLR,,0.00,WeatherDisplay:10.37,2013-05-11 15:54:00,
2013-05-11 09:59:00,54.1,39.2,29.73,West,270,0.0,0.0,57,0.00,CLR,,0.00,WeatherDisplay:10.37,2013-05-11 15:59:00,
2013-05-11 10:04:00,55.2,39.8,29.73,SW,225,0.0,0.0,56,0.00,CLR,,0.00,WeatherDisplay:10.37,2013-05-11 16:04:00,
2013-05-11 10:09:00,55.9,40.5,29.73,WNW,292,0.0,0.0,56,0.00,CLR,,0.00,WeatherDisplay:10.37,2013-05-11 16:09:00,
2013-05-11 10:14:00,57.6,41.5,29.73,WSW,248,0.0,0.0,55,0.00,CLR,,0.00,WeatherDisplay:10.37,2013-05-11 16:14:00,
2013-05-11 10:19:00,58.5,42.3,29.73,SE,135,0.0,0.0,55,0.00,CLR,,0.00,WeatherDisplay:10.37,2013-05-11 16:19:00,
2013-05-11 10:24:00,59.4,42.2,29.73,SSW,202,0.0,0.0,53,0.00,CLR,,0.00,WeatherDisplay:10.37,2013-05-11 16:24:00,
2013-05-11 10:29:00,59.9,42.7,29.73,WSW,248,2.3,2.3,53,0.00,CLR,,0.00,WeatherDisplay:10.37,2013-05-11 16:29:00,
2013-05-11 10:34:00,60.3,42.6,29.73,SW,225,0.0,0.8,52,0.00,CLR,,0.00,WeatherDisplay:10.37,2013-05-11 16:34:00,
2013-05-11 10:39:00,60.6,42.4,29.73,ESE,112,0.0,0.8,51,0.00,CLR,,0.00,WeatherDisplay:10.37,2013-05-11 16:39:00,
2013-05-11 10:44:00,61.3,43.0,29.73,SW,225,0.0,0.5,51,0.00,CLR,,0.00,WeatherDisplay:10.37,2013-05-11 16:44:00,
2013-05-11 10:49:00,61.2,42.4,29.72,WSW,248,0.0,0.1,50,0.00,CLR,,0.00,WeatherDisplay:10.37,2013-05-11 16:49:00,
2013-05-11 10:54:00,61.7,42.9,29.72,WSW,248,0.0,0.0,50,0.00,CLR,,0.00,WeatherDisplay:10.37,2013-05-11 16:54:00,
2013-05-11 10:59:00,62.1,42.7,29.72,WSW,248,0.0,0.0,49,0.00,CLR,,0.00,WeatherDisplay:10.37,2013-05-11 16:59:00,
2013-05-11 11:04:00,62.6,43.2,29.72,WNW,292,0.0,0.0,49,0.00,CLR,,0.00,WeatherDisplay:10.37,2013-05-11 17:04:00,
2013-05-11 11:09:00,62.4,42.5,29.72,WNW,292,0.0,0.0,48,0.00,CLR,,0.00,WeatherDisplay:10.37,2013-05-11 17:09:00,
2013-05-11 11:14:00,62.8,42.2,29.72,WSW,248,0.0,2.0,47,0.00,CLR,,0.00,WeatherDisplay:10.37,2013-05-11 17:14:00,
2013-05-11 11:19:00,62.6,42.1,29.72,SW,225,0.0,1.1,47,0.00,CLR,,0.00,WeatherDisplay:10.37,2013-05-11 17:19:00,
2013-05-11 11:24:00,62.8,42.2,29.72,WSW,248,0.0,0.3,47,0.00,CLR,,0.00,WeatherDisplay:10.37,2013-05-11 17:24:00,
2013-05-11 11:29:00,63.0,42.4,29.71,WNW,292,0.0,0.1,47,0.00,CLR,,0.00,WeatherDisplay:10.37,2013-05-11 17:29:00,
2013-05-11 11:34:00,63.3,43.3,29.71,SSW,202,0.0,0.0,48,0.00,CLR,,0.00,WeatherDisplay:10.37,2013-05-11 17:34:00,
2013-05-11 11:39:00,63.5,43.4,29.71,SSW,202,0.0,0.0,48,0.00,CLR,,0.00,WeatherDisplay:10.37,2013-05-11 17:39:00,
2013-05-11 11:44:00,64.0,42.8,29.71,SSW,202,0.0,0.0,46,0.00,CLR,,0.00,WeatherDisplay:10.37,2013-05-11 17:44:00,
2013-05-11 11:49:00,64.6,43.3,29.70,SE,135,0.0,0.1,46,0.00,CLR,,0.00,WeatherDisplay:10.37,2013-05-11 17:49:00,
2013-05-11 11:54:00,65.5,43.6,29.70,SSW,202,0.0,0.3,45,0.00,CLR,,0.00,WeatherDisplay:10.37,2013-05-11 17:54:00,
2013-05-11 11:59:00,66.0,43.5,29.70,NE,45,0.0,0.3,44,0.00,CLR,,0.00,WeatherDisplay:10.37,2013-05-11 17:59:00,
2013-05-11 12:04:00,66.0,44.1,29.70,NE,45,1.4,1.4,45,0.00,CLR,,0.00,WeatherDisplay:10.37,2013-05-11 18:04:00,
2013-05-11 12:09:00,66.0,44.1,29.68,NE,45,1.1,1.1,45,0.00,CLR,,0.00,WeatherDisplay:10.37,2013-05-11 18:09:00,
2013-05-11 12:14:00,67.3,44.6,29.68,SSW,202,0.0,0.0,44,0.00,CLR,,0.00,WeatherDisplay:10.37,2013-05-11 18:14:00,
2013-05-11 12:19:00,67.1,44.4,29.68,WSW,248,0.0,0.0,44,0.00,CLR,,0.00,WeatherDisplay:10.37,2013-05-11 18:19:00,
2013-05-11 12:24:00,67.1,43.8,29.68,WSW,248,0.0,0.6,43,0.00,CLR,,0.00,WeatherDisplay:10.37,2013-05-11 18:24:00,
2013-05-11 12:29:00,67.3,44.0,29.69,WNW,292,0.0,0.6,43,0.00,CLR,,0.00,WeatherDisplay:10.37,2013-05-11 18:29:00,
2013-05-11 12:34:00,67.8,45.1,29.69,NW,315,0.0,0.5,44,0.00,CLR,,0.00,WeatherDisplay:10.37,2013-05-11 18:34:00,
2013-05-11 12:39:00,68.2,44.8,29.67,WNW,292,0.0,0.0,43,0.00,CLR,,0.00,WeatherDisplay:10.37,2013-05-11 18:39:00,
2013-05-11 15:00:00,75.9,44.7,29.63,WSW,248,2.4,2.4,33,0.00,CLR,,0.00,WeatherDisplay:10.37,2013-05-11 21:00:00,
2013-05-11 15:05:00,76.3,44.2,29.63,WSW,248,0.0,1.1,32,0.00,CLR,,0.00,WeatherDisplay:10.37,2013-05-11 21:05:00,
2013-05-11 15:10:00,76.3,45.1,29.63,SE,135,5.8,5.8,33,0.00,CLR,,0.00,WeatherDisplay:10.37,2013-05-11 21:10:00,
2013-05-11 15:15:00,76.5,45.2,29.63,North,0,8.1,8.1,33,0.00,CLR,,0.00,WeatherDisplay:10.37,2013-05-11 21:15:00,
2013-05-11 15:20:00,76.1,44.9,29.62,ESE,112,2.3,2.3,33,0.00,CLR,,0.00,WeatherDisplay:10.37,2013-05-11 21:20:00,
2013-05-11 15:25:00,75.9,43.9,29.62,WSW,248,0.0,1.1,32,0.00,CLR,,0.00,WeatherDisplay:10.37,2013-05-11 21:25:00,
2013-05-11 15:30:00,76.1,43.3,29.62,SW,225,0.0,0.8,31,0.00,CLR,,0.00,WeatherDisplay:10.37,2013-05-11 21:30:00,
2013-05-11 15:35:00,76.8,43.9,29.62,SSW,202,2.3,2.3,31,0.00,CLR,,0.00,WeatherDisplay:10.37,2013-05-11 21:35:00,
2013-05-11 15:40:00,77.2,45.0,29.62,South,180,5.8,5.8,32,0.00,CLR,,0.00,WeatherDisplay:10.37,2013-05-11 21:40:00,
2013-05-11 15:45:00,77.7,45.5,29.62,SW,225,6.9,6.9,32,0.00,CLR,,0.00,WeatherDisplay:10.37,2013-05-11 21:45:00,
2013-05-11 15:50:00,78.3,45.1,29.62,SSE,158,3.5,3.5,31,0.00,CLR,,0.00,WeatherDisplay:10.37,2013-05-11 21:50:00,
2013-05-11 15:55:00,77.9,43.1,29.62,SW,225,9.0,9.0,29,0.00,CLR,,0.00,WeatherDisplay:10.37,2013-05-11 21:55:00,
2013-05-11 16:00:00,77.4,44.4,29.61,SSE,158,6.9,6.9,31,0.00,CLR,,0.00,WeatherDisplay:10.37,2013-05-11 22:00:00,
2013-05-11 16:05:00,77.7,44.7,29.61,ENE,68,3.5,3.5,31,0.00,CLR,,0.00,WeatherDisplay:10.37,2013-05-11 22:05:00,
2013-05-11 16:10:00,77.7,43.8,29.61,SW,225,8.2,8.2,30,0.00,CLR,,0.00,WeatherDisplay:10.37,2013-05-11 22:10:00,
2013-05-11 16:15:00,77.9,44.0,29.61,SE,135,5.8,5.8,30,0.00,CLR,,0.00,WeatherDisplay:10.37,2013-05-11 22:15:00,
2013-05-11 16:20:00,77.9,43.1,29.60,ENE,68,4.6,4.6,29,0.00,CLR,,0.00,WeatherDisplay:10.37,2013-05-11 22:20:00,
2013-05-11 16:25:00,77.7,42.0,29.60,WSW,248,3.6,3.6,28,0.00,CLR,,0.00,WeatherDisplay:10.37,2013-05-11 22:25:00,
2013-05-11 16:30:00,77.4,41.7,29.60,SW,225,5.8,5.8,28,0.00,CLR,,0.00,WeatherDisplay:10.37,2013-05-11 22:30:00,
2013-05-11 16:35:00,77.2,42.5,29.60,South,180,6.9,6.9,29,0.00,CLR,,0.00,WeatherDisplay:10.37,2013-05-11 22:35:00,
2013-05-11 16:40:00,77.4,42.6,29.58,SSE,158,3.5,3.5,29,0.00,CLR,,0.00,WeatherDisplay:10.37,2013-05-11 22:40:00,
2013-05-11 17:53:00,74.1,42.4,29.55,SE,135,2.3,2.3,32,0.00,CLR,,0.00,WeatherDisplay:10.37,2013-05-11 23:53:00,
2013-05-11 17:58:00,74.3,42.5,29.55,ENE,68,0.0,1.3,32,0.00,CLR,,0.00,WeatherDisplay:10.37,2013-05-11 23:58:00,
2013-05-11 18:03:00,73.9,43.0,29.53,North,0,1.1,1.1,33,0.00,CLR,,0.00,WeatherDisplay:10.37,2013-05-12 00:03:00,
2013-05-11 18:08:00,73.9,43.0,29.53,NNW,338,0.0,0.3,33,0.00,CLR,,0.00,WeatherDisplay:10.37,2013-05-12 00:08:00,
2013-05-11 18:13:00,73.9,43.8,29.53,NE,45,0.0,0.0,34,0.00,CLR,,0.00,WeatherDisplay:10.37,2013-05-12 00:13:00,
2013-05-11 18:18:00,73.9,43.8,29.53,NE,45,0.0,0.0,34,0.00,CLR,,0.00,WeatherDisplay:10.37,2013-05-12 00:18:00,
2013-05-11 18:23:00,73.8,44.4,29.54,WNW,292,0.0,0.0,35,0.00,CLR,,0.00,WeatherDisplay:10.37,2013-05-12 00:23:00,
2013-05-11 18:28:00,73.9,44.5,29.54,NE,45,0.0,0.0,35,0.00,CLR,,0.00,WeatherDisplay:10.37,2013-05-12 00:28:00,
2013-05-11 18:33:00,73.8,44.4,29.54,NNE,22,0.0,0.1,35,0.00,CLR,,0.00,WeatherDisplay:10.37,2013-05-12 00:33:00,
2013-05-11 18:38:00,73.8,42.9,29.54,SSE,158,5.8,5.8,33,0.00,CLR,,0.00,WeatherDisplay:10.37,2013-05-12 00:38:00,
2013-05-11 18:43:00,73.9,43.8,29.57,West,270,0.0,1.5,34,0.00,CLR,,0.00,WeatherDisplay:10.37,2013-05-12 00:43:00,
2013-05-11 18:48:00,73.9,43.8,29.57,East,90,0.0,1.3,34,0.00,CLR,,0.00,WeatherDisplay:10.37,2013-05-12 00:48:00,
2013-05-11 18:53:00,73.8,42.9,29.57,NE,45,0.0,0.1,33,0.00,CLR,,0.00,WeatherDisplay:10.37,2013-05-12 00:53:00,
2013-05-11 18:58:00,73.8,43.6,29.57,NNW,338,2.3,2.3,34,0.00,CLR,,0.00,WeatherDisplay:10.37,2013-05-12 00:58:00,
2013-05-11 19:03:00,73.6,42.7,29.55,SSE,158,2.3,2.3,33,0.00,CLR,,0.00,WeatherDisplay:10.37,2013-05-12 01:03:00,
2013-05-11 19:08:00,73.6,42.7,29.55,WSW,248,0.0,1.1,33,0.00,CLR,,0.00,WeatherDisplay:10.37,2013-05-12 01:08:00,
2013-05-11 19:13:00,73.6,42.7,29.55,SW,225,2.3,2.3,33,0.00,CLR,,0.00,WeatherDisplay:10.37,2013-05-12 01:13:00,
2013-05-11 19:18:00,73.6,42.7,29.55,SSW,202,0.0,0.6,33,0.00,CLR,,0.00,WeatherDisplay:10.37,2013-05-12 01:18:00,
2013-05-11 19:23:00,73.2,42.4,29.55,SW,225,4.6,4.6,33,0.00,CLR,,0.00,WeatherDisplay:10.37,2013-05-12 01:23:00,
2013-05-11 19:28:00,73.2,42.4,29.55,SSW,202,3.5,3.5,33,0.00,CLR,,0.00,WeatherDisplay:10.37,2013-05-12 01:28:00,
2013-05-11 19:33:00,72.9,42.1,29.55,SSW,202,0.0,1.1,33,0.00,CLR,,0.00,WeatherDisplay:10.37,2013-05-12 01:33:00,
2013-05-11 19:38:00,72.7,42.7,29.55,East,90,2.3,2.3,34,0.00,CLR,,0.00,WeatherDisplay:10.37,2013-05-12 01:38:00,
2013-05-11 19:43:00,72.7,42.7,29.51,East,90,0.0,0.2,34,0.00,CLR,,0.00,WeatherDisplay:10.37,2013-05-12 01:43:00,
2013-05-11 19:48:00,72.5,43.3,29.51,WSW,248,0.0,0.2,35,0.00,CLR,,0.00,WeatherDisplay:10.37,2013-05-12 01:48:00,
2013-05-11 19:53:00,72.1,43.0,29.51,WSW,248,0.0,0.0,35,0.00,CLR,,0.00,WeatherDisplay:10.37,2013-05-12 01:53:00,
2013-05-11 19:58:00,72.1,43.7,29.51,SE,135,0.0,0.0,36,0.00,CLR,,0.00,WeatherDisplay:10.37,2013-05-12 01:58:00,
2013-05-11 20:03:00,71.8,43.4,29.50,WNW,292,0.0,0.0,36,0.00,CLR,,0.00,WeatherDisplay:10.37,2013-05-12 02:03:00,
2013-05-11 20:08:00,71.4,43.1,29.50,ENE,68,0.0,0.1,36,0.00,CLR,,0.00,WeatherDisplay:10.37,2013-05-12 02:08:00,
2013-05-11 20:13:00,71.2,42.9,29.50,East,90,0.0,0.1,36,0.00,CLR,,0.00,WeatherDisplay:10.37,2013-05-12 02:13:00,
2013-05-11 20:18:00,70.9,43.3,29.50,East,90,0.0,0.0,37,0.00,CLR,,0.00,WeatherDisplay:10.37,2013-05-12 02:18:00,
2013-05-11 20:23:00,70.5,43.0,29.50,NE,45,0.0,0.0,37,0.00,CLR,,0.00,WeatherDisplay:10.37,2013-05-12 02:23:00,
2013-05-11 20:28:00,70.0,42.5,29.50,East,90,2.3,2.3,37,0.00,CLR,,0.00,WeatherDisplay:10.37,2013-05-12 02:28:00,
2013-05-11 20:33:00,69.3,43.2,29.50,NE,45,0.0,0.3,39,0.00,CLR,,0.00,WeatherDisplay:10.37,2013-05-12 02:33:00,
2013-05-11 20:38:00,68.5,41.9,29.50,NE,45,0.0,0.0,38,0.00,CLR,,0.00,WeatherDisplay:10.37,2013-05-12 02:38:00,
2013-05-11 20:43:00,68.0,42.1,29.50,NNE,22,0.0,0.0,39,0.00,CLR,,0.00,WeatherDisplay:10.37,2013-05-12 02:43:00,
2013-05-11 20:48:00,67.1,41.3,29.50,NNE,22,0.0,0.0,39,0.00,CLR,,0.00,WeatherDisplay:10.37,2013-05-12 02:48:00,
2013-05-11 20:53:00,66.4,41.3,29.50,North,0,0.0,0.0,40,0.00,CLR,,0.00,WeatherDisplay:10.37,2013-05-12 02:53:00,
2013-05-11 20:58:00,65.7,40.7,29.50,NNE,22,0.0,0.0,40,0.00,CLR,,0.00,WeatherDisplay:10.37,2013-05-12 02:58:00,
2013-05-11 21:03:00,65.1,40.2,29.50,NE,45,0.0,0.0,40,0.00,CLR,,0.00,WeatherDisplay:10.37,2013-05-12 03:03:00,
2013-05-11 21:08:00,64.4,40.2,29.50,North,0,0.0,0.0,41,0.00,CLR,,0.00,WeatherDisplay:10.37,2013-05-12 03:08:00,
2013-05-11 21:13:00,63.9,39.7,29.50,ENE,68,0.0,0.0,41,0.00,CLR,,0.00,WeatherDisplay:10.37,2013-05-12 03:13:00,